sensor_id;sensor_type;location;lat;lon;timestamp;pressure;altitude;pressure_sealevel;temperature;humidity
17060;BME280;8646;49.716;9.266;2023-05-23T00:00:22;100043.81;;;18.65;82.51
17060;BME280;8646;49.716;9.266;2023-05-23T00:03:26;100047.69;;;18.74;82.63
17060;BME280;8646;49.716;9.266;2023-05-23T00:06:29;100049.19;;;18.78;82.56
17060;BME280;8646;49.716;9.266;2023-05-23T00:09:32;100057.91;;;18.83;82.42
17060;BME280;8646;49.716;9.266;2023-05-23T00:12:36;100054.81;;;18.88;82.31
17060;BME280;8646;49.716;9.266;2023-05-23T00:15:40;100063.03;;;18.88;82.70
17060;BME280;8646;49.716;9.266;2023-05-23T00:18:43;100062.03;;;18.89;82.80
17060;BME280;8646;49.716;9.266;2023-05-23T00:21:47;100068.13;;;18.92;82.59
17060;BME280;8646;49.716;9.266;2023-05-23T00:24:50;100065.03;;;18.97;83.19
17060;BME280;8646;49.716;9.266;2023-05-23T00:27:54;100057.16;;;18.92;83.42
17060;BME280;8646;49.716;9.266;2023-05-23T00:30:57;100071.00;;;18.91;83.36
17060;BME280;8646;49.716;9.266;2023-05-23T00:33:59;100056.94;;;18.95;83.14
17060;BME280;8646;49.716;9.266;2023-05-23T00:37:03;100059.56;;;18.97;83.08
17060;BME280;8646;49.716;9.266;2023-05-23T00:40:07;100053.31;;;18.95;83.14
17060;BME280;8646;49.716;9.266;2023-05-23T00:43:12;100061.53;;;18.95;82.96
17060;BME280;8646;49.716;9.266;2023-05-23T00:46:15;100063.28;;;18.96;82.85
17060;BME280;8646;49.716;9.266;2023-05-23T00:49:18;100051.31;;;18.86;82.86
17060;BME280;8646;49.716;9.266;2023-05-23T00:52:21;100055.69;;;18.88;82.94
17060;BME280;8646;49.716;9.266;2023-05-23T00:55:24;100053.94;;;18.87;82.95
17060;BME280;8646;49.716;9.266;2023-05-23T00:58:28;100061.53;;;18.84;82.88
17060;BME280;8646;49.716;9.266;2023-05-23T01:01:32;100055.28;;;18.82;83.02
17060;BME280;8646;49.716;9.266;2023-05-23T01:04:37;100057.53;;;18.77;83.17
17060;BME280;8646;49.716;9.266;2023-05-23T01:07:40;100069.13;;;18.69;83.66
17060;BME280;8646;49.716;9.266;2023-05-23T01:10:43;100070.34;;;18.65;83.75
17060;BME280;8646;49.716;9.266;2023-05-23T01:13:52;100074.34;;;18.61;84.25
17060;BME280;8646;49.716;9.266;2023-05-23T01:17:00;100064.47;;;18.58;84.81
17060;BME280;8646;49.716;9.266;2023-05-23T01:20:06;100070.84;;;18.59;85.45
17060;BME280;8646;49.716;9.266;2023-05-23T01:23:28;100065.19;;;18.49;86.09
17060;BME280;8646;49.716;9.266;2023-05-23T01:26:48;100080.94;;;18.58;86.47
17060;BME280;8646;49.716;9.266;2023-05-23T01:29:57;100079.19;;;18.57;86.79
17060;BME280;8646;49.716;9.266;2023-05-23T01:33:04;100077.66;;;18.53;87.17
17060;BME280;8646;49.716;9.266;2023-05-23T01:36:07;100076.41;;;18.46;86.81
17060;BME280;8646;49.716;9.266;2023-05-23T01:39:11;100089.72;;;18.40;86.76
17060;BME280;8646;49.716;9.266;2023-05-23T01:42:14;100081.09;;;18.33;86.75
17060;BME280;8646;49.716;9.266;2023-05-23T01:45:19;100083.56;;;18.25;86.65
17060;BME280;8646;49.716;9.266;2023-05-23T01:48:23;100086.28;;;18.14;87.14
17060;BME280;8646;49.716;9.266;2023-05-23T01:51:27;100103.28;;;18.06;87.39
17060;BME280;8646;49.716;9.266;2023-05-23T01:54:31;100107.50;;;17.99;87.55
17060;BME280;8646;49.716;9.266;2023-05-23T01:57:36;100104.09;;;17.96;87.58
17060;BME280;8646;49.716;9.266;2023-05-23T02:00:41;100104.97;;;17.96;87.46
17060;BME280;8646;49.716;9.266;2023-05-23T02:03:43;100117.56;;;17.99;88.05
17060;BME280;8646;49.716;9.266;2023-05-23T02:06:46;100117.09;;;18.05;88.52
17060;BME280;8646;49.716;9.266;2023-05-23T02:09:49;100113.88;;;18.11;88.15
17060;BME280;8646;49.716;9.266;2023-05-23T02:12:52;100111.69;;;18.16;88.29
17060;BME280;8646;49.716;9.266;2023-05-23T02:15:56;100113.81;;;18.23;88.69
17060;BME280;8646;49.716;9.266;2023-05-23T02:18:59;100119.44;;;18.33;88.19
17060;BME280;8646;49.716;9.266;2023-05-23T02:22:02;100116.97;;;18.41;88.13
17060;BME280;8646;49.716;9.266;2023-05-23T02:25:06;100113.63;;;18.49;87.64
17060;BME280;8646;49.716;9.266;2023-05-23T02:28:09;100108.56;;;18.55;87.80
17060;BME280;8646;49.716;9.266;2023-05-23T02:31:14;100109.97;;;18.61;87.39
17060;BME280;8646;49.716;9.266;2023-05-23T02:34:17;100107.00;;;18.64;87.28
17060;BME280;8646;49.716;9.266;2023-05-23T02:37:20;100120.16;;;18.59;87.65
17060;BME280;8646;49.716;9.266;2023-05-23T02:40:23;100107.59;;;18.56;87.76
17060;BME280;8646;49.716;9.266;2023-05-23T02:43:26;100118.31;;;18.59;87.52
17060;BME280;8646;49.716;9.266;2023-05-23T02:46:30;100111.06;;;18.58;87.31
17060;BME280;8646;49.716;9.266;2023-05-23T02:49:33;100119.81;;;18.63;87.48
17060;BME280;8646;49.716;9.266;2023-05-23T02:52:36;100120.31;;;18.68;87.38
17060;BME280;8646;49.716;9.266;2023-05-23T02:55:39;100126.81;;;18.79;87.37
17060;BME280;8646;49.716;9.266;2023-05-23T02:58:43;100125.31;;;18.75;87.47
17060;BME280;8646;49.716;9.266;2023-05-23T03:01:47;100138.91;;;18.76;87.49
17060;BME280;8646;49.716;9.266;2023-05-23T03:04:51;100128.81;;;18.77;87.50
17060;BME280;8646;49.716;9.266;2023-05-23T03:07:54;100132.03;;;18.82;87.39
17060;BME280;8646;49.716;9.266;2023-05-23T03:10:58;100139.03;;;18.86;87.38
17060;BME280;8646;49.716;9.266;2023-05-23T03:14:01;100135.03;;;18.90;87.02
17060;BME280;8646;49.716;9.266;2023-05-23T03:17:05;100129.81;;;18.87;87.25
17060;BME280;8646;49.716;9.266;2023-05-23T03:20:09;100139.66;;;18.89;86.76
17060;BME280;8646;49.716;9.266;2023-05-23T03:23:12;100135.56;;;18.95;86.97
17060;BME280;8646;49.716;9.266;2023-05-23T03:26:15;100135.56;;;18.95;87.00
17060;BME280;8646;49.716;9.266;2023-05-23T03:29:18;100142.81;;;18.96;86.75
17060;BME280;8646;49.716;9.266;2023-05-23T03:32:23;100144.66;;;18.95;86.75
17060;BME280;8646;49.716;9.266;2023-05-23T03:35:26;100138.91;;;18.98;86.44
17060;BME280;8646;49.716;9.266;2023-05-23T03:38:29;100137.94;;;18.99;86.45
17060;BME280;8646;49.716;9.266;2023-05-23T03:41:31;100138.56;;;19.03;86.38
17060;BME280;8646;49.716;9.266;2023-05-23T03:44:35;100137.56;;;19.04;86.21
17060;BME280;8646;49.716;9.266;2023-05-23T03:47:39;100132.81;;;19.06;86.36
17060;BME280;8646;49.716;9.266;2023-05-23T03:50:43;100141.56;;;19.11;85.91
17060;BME280;8646;49.716;9.266;2023-05-23T03:53:46;100144.31;;;19.11;85.86
17060;BME280;8646;49.716;9.266;2023-05-23T03:56:49;100144.91;;;19.15;85.60
17060;BME280;8646;49.716;9.266;2023-05-23T03:59:52;100146.53;;;19.06;85.69
17060;BME280;8646;49.716;9.266;2023-05-23T04:02:57;100146.03;;;19.01;85.82
17060;BME280;8646;49.716;9.266;2023-05-23T04:06:01;100144.81;;;19.05;85.74
17060;BME280;8646;49.716;9.266;2023-05-23T04:09:05;100161.00;;;19.08;85.76
17060;BME280;8646;49.716;9.266;2023-05-23T04:12:08;100152.41;;;19.13;85.64
17060;BME280;8646;49.716;9.266;2023-05-23T04:15:12;100142.94;;;19.17;84.96
17060;BME280;8646;49.716;9.266;2023-05-23T04:18:17;100164.00;;;19.16;85.01
17060;BME280;8646;49.716;9.266;2023-05-23T04:21:20;100159.63;;;19.14;84.95
17060;BME280;8646;49.716;9.266;2023-05-23T04:24:23;100165.97;;;19.14;84.81
17060;BME280;8646;49.716;9.266;2023-05-23T04:27:26;100160.75;;;19.11;84.37
17060;BME280;8646;49.716;9.266;2023-05-23T04:30:29;100158.13;;;19.10;84.40
17060;BME280;8646;49.716;9.266;2023-05-23T04:33:33;100159.13;;;19.09;83.94
17060;BME280;8646;49.716;9.266;2023-05-23T04:36:36;100162.25;;;19.04;84.24
17060;BME280;8646;49.716;9.266;2023-05-23T04:39:39;100175.97;;;19.04;84.20
17060;BME280;8646;49.716;9.266;2023-05-23T04:42:42;100174.59;;;19.10;83.92
17060;BME280;8646;49.716;9.266;2023-05-23T04:45:45;100176.34;;;19.11;83.84
17060;BME280;8646;49.716;9.266;2023-05-23T04:48:51;100164.50;;;19.21;83.29
17060;BME280;8646;49.716;9.266;2023-05-23T04:51:55;100169.63;;;19.26;82.96
17060;BME280;8646;49.716;9.266;2023-05-23T04:54:58;100165.75;;;19.28;82.88
17060;BME280;8646;49.716;9.266;2023-05-23T04:58:01;100168.50;;;19.28;82.90
17060;BME280;8646;49.716;9.266;2023-05-23T05:01:03;100166.38;;;19.32;82.75
17060;BME280;8646;49.716;9.266;2023-05-23T05:04:09;100174.59;;;19.32;82.78
17060;BME280;8646;49.716;9.266;2023-05-23T05:07:12;100174.47;;;19.33;82.63
17060;BME280;8646;49.716;9.266;2023-05-23T05:10:15;100178.22;;;19.32;82.54
17060;BME280;8646;49.716;9.266;2023-05-23T05:13:18;100177.84;;;19.37;82.17
17060;BME280;8646;49.716;9.266;2023-05-23T05:16:21;100182.38;;;19.49;81.34
17060;BME280;8646;49.716;9.266;2023-05-23T05:19:25;100182.72;;;19.33;81.78
17060;BME280;8646;49.716;9.266;2023-05-23T05:22:28;100190.06;;;19.44;80.97
17060;BME280;8646;49.716;9.266;2023-05-23T05:25:31;100193.94;;;19.41;80.27
17060;BME280;8646;49.716;9.266;2023-05-23T05:28:36;100199.19;;;19.44;80.24
17060;BME280;8646;49.716;9.266;2023-05-23T05:31:39;100200.34;;;19.53;79.42
17060;BME280;8646;49.716;9.266;2023-05-23T05:34:44;100198.31;;;19.66;78.80
17060;BME280;8646;49.716;9.266;2023-05-23T05:37:50;100202.94;;;19.77;78.58
17060;BME280;8646;49.716;9.266;2023-05-23T05:40:52;100202.53;;;19.93;76.21
17060;BME280;8646;49.716;9.266;2023-05-23T05:43:55;100214.25;;;19.95;75.63
17060;BME280;8646;49.716;9.266;2023-05-23T05:46:58;100216.22;;;20.04;75.51
17060;BME280;8646;49.716;9.266;2023-05-23T05:50:03;100215.09;;;20.06;75.03
17060;BME280;8646;49.716;9.266;2023-05-23T05:53:06;100224.63;;;20.02;73.36
17060;BME280;8646;49.716;9.266;2023-05-23T05:56:09;100234.09;;;19.98;73.25
17060;BME280;8646;49.716;9.266;2023-05-23T05:59:12;100249.09;;;19.94;72.92
17060;BME280;8646;49.716;9.266;2023-05-23T06:02:14;100243.09;;;20.00;71.50
17060;BME280;8646;49.716;9.266;2023-05-23T06:05:19;100235.09;;;20.08;71.00
17060;BME280;8646;49.716;9.266;2023-05-23T06:08:21;100234.69;;;20.24;68.69
17060;BME280;8646;49.716;9.266;2023-05-23T06:11:24;100237.06;;;20.17;68.47
17060;BME280;8646;49.716;9.266;2023-05-23T06:14:28;100242.63;;;20.27;68.12
17060;BME280;8646;49.716;9.266;2023-05-23T06:17:31;100242.50;;;20.29;68.43
17060;BME280;8646;49.716;9.266;2023-05-23T06:20:35;100253.06;;;20.35;67.21
17060;BME280;8646;49.716;9.266;2023-05-23T06:23:38;100255.25;;;20.30;65.71
17060;BME280;8646;49.716;9.266;2023-05-23T06:26:41;100255.56;;;20.15;67.20
17060;BME280;8646;49.716;9.266;2023-05-23T06:29:44;100258.28;;;20.27;65.58
17060;BME280;8646;49.716;9.266;2023-05-23T06:32:47;100241.47;;;20.09;66.07
17060;BME280;8646;49.716;9.266;2023-05-23T06:35:51;100265.50;;;20.28;64.56
17060;BME280;8646;49.716;9.266;2023-05-23T06:38:54;100266.41;;;20.17;65.05
17060;BME280;8646;49.716;9.266;2023-05-23T06:41:56;100272.16;;;20.14;65.63
17060;BME280;8646;49.716;9.266;2023-05-23T06:44:59;100273.75;;;20.28;65.38
17060;BME280;8646;49.716;9.266;2023-05-23T06:48:03;100262.75;;;20.39;63.91
17060;BME280;8646;49.716;9.266;2023-05-23T06:51:07;100257.38;;;20.48;63.04
17060;BME280;8646;49.716;9.266;2023-05-23T06:54:11;100268.19;;;20.61;61.17
17060;BME280;8646;49.716;9.266;2023-05-23T06:57:13;100269.06;;;20.62;62.16
17060;BME280;8646;49.716;9.266;2023-05-23T07:00:17;100268.50;;;20.79;61.99
17060;BME280;8646;49.716;9.266;2023-05-23T07:03:20;100266.78;;;20.99;61.34
17060;BME280;8646;49.716;9.266;2023-05-23T07:06:24;100273.94;;;21.11;60.68
17060;BME280;8646;49.716;9.266;2023-05-23T07:09:27;100271.06;;;21.12;59.02
17060;BME280;8646;49.716;9.266;2023-05-23T07:12:30;100278.59;;;21.10;59.20
17060;BME280;8646;49.716;9.266;2023-05-23T07:15:35;100276.69;;;21.22;59.32
17060;BME280;8646;49.716;9.266;2023-05-23T07:18:38;100278.34;;;21.34;59.09
17060;BME280;8646;49.716;9.266;2023-05-23T07:21:42;100271.34;;;21.51;58.77
17060;BME280;8646;49.716;9.266;2023-05-23T07:24:44;100258.97;;;21.66;57.44
17060;BME280;8646;49.716;9.266;2023-05-23T07:27:47;100268.75;;;21.80;57.20
17060;BME280;8646;49.716;9.266;2023-05-23T07:30:50;100269.19;;;21.85;56.99
17060;BME280;8646;49.716;9.266;2023-05-23T07:33:53;100263.44;;;21.88;55.62
17060;BME280;8646;49.716;9.266;2023-05-23T07:36:58;100274.53;;;21.77;55.12
17060;BME280;8646;49.716;9.266;2023-05-23T07:40:03;100275.16;;;21.59;54.36
17060;BME280;8646;49.716;9.266;2023-05-23T07:43:06;100279.53;;;21.41;55.71
17060;BME280;8646;49.716;9.266;2023-05-23T07:46:09;100269.28;;;21.43;55.32
17060;BME280;8646;49.716;9.266;2023-05-23T07:49:12;100273.97;;;21.52;54.90
17060;BME280;8646;49.716;9.266;2023-05-23T07:52:16;100271.66;;;21.57;55.37
17060;BME280;8646;49.716;9.266;2023-05-23T07:55:19;100274.59;;;21.65;55.11
17060;BME280;8646;49.716;9.266;2023-05-23T07:58:22;100273.78;;;21.75;54.63
17060;BME280;8646;49.716;9.266;2023-05-23T08:01:24;100283.97;;;21.84;54.75
17060;BME280;8646;49.716;9.266;2023-05-23T08:04:27;100284.91;;;21.94;54.34
17060;BME280;8646;49.716;9.266;2023-05-23T08:07:32;100275.84;;;22.03;53.90
17060;BME280;8646;49.716;9.266;2023-05-23T08:10:34;100276.03;;;22.30;53.36
17060;BME280;8646;49.716;9.266;2023-05-23T08:13:38;100270.91;;;22.66;52.36
17060;BME280;8646;49.716;9.266;2023-05-23T08:16:41;100269.50;;;22.91;52.06
17060;BME280;8646;49.716;9.266;2023-05-23T08:19:44;100267.88;;;23.17;50.64
17060;BME280;8646;49.716;9.266;2023-05-23T08:22:48;100281.94;;;23.43;49.89
17060;BME280;8646;49.716;9.266;2023-05-23T08:25:53;100267.69;;;23.57;48.73
17060;BME280;8646;49.716;9.266;2023-05-23T08:28:56;100265.78;;;23.48;46.30
17060;BME280;8646;49.716;9.266;2023-05-23T08:31:59;100274.13;;;23.09;47.09
17060;BME280;8646;49.716;9.266;2023-05-23T08:35:03;100277.88;;;22.70;48.51
17060;BME280;8646;49.716;9.266;2023-05-23T08:38:08;100273.25;;;22.80;48.83
17060;BME280;8646;49.716;9.266;2023-05-23T08:41:15;100277.78;;;23.00;48.04
17060;BME280;8646;49.716;9.266;2023-05-23T08:44:20;100279.47;;;23.11;48.11
17060;BME280;8646;49.716;9.266;2023-05-23T08:47:23;100276.03;;;23.18;48.11
17060;BME280;8646;49.716;9.266;2023-05-23T08:50:27;100271.31;;;23.38;47.49
17060;BME280;8646;49.716;9.266;2023-05-23T08:53:34;100274.53;;;23.34;47.25
17060;BME280;8646;49.716;9.266;2023-05-23T08:56:38;100281.22;;;23.50;47.46
17060;BME280;8646;49.716;9.266;2023-05-23T08:59:42;100268.22;;;23.61;44.78
17060;BME280;8646;49.716;9.266;2023-05-23T09:02:45;100270.63;;;23.17;45.71
17060;BME280;8646;49.716;9.266;2023-05-23T09:05:48;100280.50;;;22.81;47.14
17060;BME280;8646;49.716;9.266;2023-05-23T09:08:53;100288.81;;;23.00;47.50
17060;BME280;8646;49.716;9.266;2023-05-23T09:11:57;100280.94;;;23.34;47.11
17060;BME280;8646;49.716;9.266;2023-05-23T09:15:01;100277.28;;;23.53;46.81
17060;BME280;8646;49.716;9.266;2023-05-23T09:18:04;100291.66;;;23.66;45.75
17060;BME280;8646;49.716;9.266;2023-05-23T09:21:07;100290.66;;;23.29;47.05
17060;BME280;8646;49.716;9.266;2023-05-23T09:24:12;100281.50;;;23.38;46.84
17060;BME280;8646;49.716;9.266;2023-05-23T09:27:15;100287.47;;;23.43;46.48
17060;BME280;8646;49.716;9.266;2023-05-23T09:30:18;100289.50;;;23.41;46.65
17060;BME280;8646;49.716;9.266;2023-05-23T09:33:21;100291.22;;;23.42;46.78
17060;BME280;8646;49.716;9.266;2023-05-23T09:36:26;100288.63;;;23.40;47.48
17060;BME280;8646;49.716;9.266;2023-05-23T09:39:36;100281.34;;;23.39;47.72
17060;BME280;8646;49.716;9.266;2023-05-23T09:42:40;100294.88;;;23.33;47.70
17060;BME280;8646;49.716;9.266;2023-05-23T09:45:43;100303.03;;;23.25;48.11
17060;BME280;8646;49.716;9.266;2023-05-23T09:48:47;100304.19;;;23.22;48.07
17060;BME280;8646;49.716;9.266;2023-05-23T09:51:56;100308.38;;;23.36;48.03
17060;BME280;8646;49.716;9.266;2023-05-23T09:55:01;100298.81;;;23.49;47.47
17060;BME280;8646;49.716;9.266;2023-05-23T09:58:04;100296.88;;;23.59;47.23
17060;BME280;8646;49.716;9.266;2023-05-23T10:01:09;100301.75;;;23.85;47.16
17060;BME280;8646;49.716;9.266;2023-05-23T10:04:13;100303.97;;;24.09;46.42
17060;BME280;8646;49.716;9.266;2023-05-23T10:07:19;100291.13;;;24.27;45.06
17060;BME280;8646;49.716;9.266;2023-05-23T10:10:27;100300.91;;;24.21;46.03
17060;BME280;8646;49.716;9.266;2023-05-23T10:13:34;100299.50;;;24.35;45.92
17060;BME280;8646;49.716;9.266;2023-05-23T10:16:42;100299.38;;;24.37;45.43
17060;BME280;8646;49.716;9.266;2023-05-23T10:19:50;100309.31;;;24.20;45.17
17060;BME280;8646;49.716;9.266;2023-05-23T10:22:55;100308.84;;;23.97;45.54
17060;BME280;8646;49.716;9.266;2023-05-23T10:26:00;100287.25;;;23.73;45.99
17060;BME280;8646;49.716;9.266;2023-05-23T10:29:05;100299.50;;;24.08;45.98
17060;BME280;8646;49.716;9.266;2023-05-23T10:32:08;100307.72;;;24.27;45.46
17060;BME280;8646;49.716;9.266;2023-05-23T10:35:17;100312.69;;;24.23;45.26
17060;BME280;8646;49.716;9.266;2023-05-23T10:38:29;100307.94;;;24.06;45.25
17060;BME280;8646;49.716;9.266;2023-05-23T10:41:38;100312.09;;;23.83;45.95
17060;BME280;8646;49.716;9.266;2023-05-23T10:44:43;100318.53;;;23.64;45.39
17060;BME280;8646;49.716;9.266;2023-05-23T10:47:47;100319.44;;;23.26;46.18
17060;BME280;8646;49.716;9.266;2023-05-23T10:51:04;100304.63;;;23.17;46.94
17060;BME280;8646;49.716;9.266;2023-05-23T10:54:09;100316.66;;;23.36;46.15
17060;BME280;8646;49.716;9.266;2023-05-23T10:57:18;100318.13;;;23.30;46.46
17060;BME280;8646;49.716;9.266;2023-05-23T11:00:22;100325.81;;;23.36;46.67
17060;BME280;8646;49.716;9.266;2023-05-23T11:03:36;100313.81;;;23.84;46.68
17060;BME280;8646;49.716;9.266;2023-05-23T11:06:40;100311.50;;;24.16;45.68
17060;BME280;8646;49.716;9.266;2023-05-23T11:10:03;100314.25;;;24.16;45.53
17060;BME280;8646;49.716;9.266;2023-05-23T11:13:07;100317.63;;;23.83;45.86
17060;BME280;8646;49.716;9.266;2023-05-23T11:16:24;100316.78;;;23.63;46.63
17060;BME280;8646;49.716;9.266;2023-05-23T11:19:27;100319.88;;;23.41;47.13
17060;BME280;8646;49.716;9.266;2023-05-23T11:22:31;100319.28;;;23.28;47.53
17060;BME280;8646;49.716;9.266;2023-05-23T11:25:41;100333.97;;;22.90;48.17
17060;BME280;8646;49.716;9.266;2023-05-23T11:28:56;100346.84;;;22.20;49.51
17060;BME280;8646;49.716;9.266;2023-05-23T11:31:59;100353.91;;;22.13;50.29
17060;BME280;8646;49.716;9.266;2023-05-23T11:35:03;100348.97;;;21.86;51.29
17060;BME280;8646;49.716;9.266;2023-05-23T11:38:08;100346.94;;;21.88;51.52
17060;BME280;8646;49.716;9.266;2023-05-23T11:41:11;100342.72;;;22.05;51.40
17060;BME280;8646;49.716;9.266;2023-05-23T11:44:15;100342.50;;;22.27;50.93
17060;BME280;8646;49.716;9.266;2023-05-23T11:47:18;100344.28;;;22.48;50.71
17060;BME280;8646;49.716;9.266;2023-05-23T11:50:22;100339.03;;;22.75;50.40
17060;BME280;8646;49.716;9.266;2023-05-23T11:53:26;100337.16;;;23.04;49.79
17060;BME280;8646;49.716;9.266;2023-05-23T11:56:29;100340.34;;;23.29;49.20
17060;BME280;8646;49.716;9.266;2023-05-23T11:59:33;100330.75;;;23.52;47.90
17060;BME280;8646;49.716;9.266;2023-05-23T12:02:37;100335.41;;;23.32;48.78
17060;BME280;8646;49.716;9.266;2023-05-23T12:05:42;100340.06;;;23.61;48.04
17060;BME280;8646;49.716;9.266;2023-05-23T12:08:45;100321.16;;;23.66;47.70
17060;BME280;8646;49.716;9.266;2023-05-23T12:11:48;100323.44;;;23.80;47.48
17060;BME280;8646;49.716;9.266;2023-05-23T12:14:55;100323.09;;;23.92;47.70
17060;BME280;8646;49.716;9.266;2023-05-23T12:17:59;100320.78;;;23.88;46.83
17060;BME280;8646;49.716;9.266;2023-05-23T12:21:04;100320.69;;;23.70;47.45
17060;BME280;8646;49.716;9.266;2023-05-23T12:24:16;100326.69;;;23.66;47.30
17060;BME280;8646;49.716;9.266;2023-05-23T12:27:26;100338.53;;;23.85;46.16
17060;BME280;8646;49.716;9.266;2023-05-23T12:30:40;100328.84;;;23.62;47.23
17060;BME280;8646;49.716;9.266;2023-05-23T12:33:45;100317.31;;;23.76;46.65
17060;BME280;8646;49.716;9.266;2023-05-23T12:36:53;100323.06;;;24.02;45.76
17060;BME280;8646;49.716;9.266;2023-05-23T12:40:17;100314.56;;;23.76;45.46
17060;BME280;8646;49.716;9.266;2023-05-23T12:43:20;100336.84;;;23.46;46.47
17060;BME280;8646;49.716;9.266;2023-05-23T12:46:25;100320.88;;;23.59;45.66
17060;BME280;8646;49.716;9.266;2023-05-23T12:49:28;100330.19;;;23.39;46.23
17060;BME280;8646;49.716;9.266;2023-05-23T12:52:31;100335.72;;;23.48;45.88
17060;BME280;8646;49.716;9.266;2023-05-23T12:55:34;100341.06;;;23.11;46.49
17060;BME280;8646;49.716;9.266;2023-05-23T12:58:37;100327.28;;;23.21;46.49
17060;BME280;8646;49.716;9.266;2023-05-23T13:01:41;100338.59;;;23.47;45.66
17060;BME280;8646;49.716;9.266;2023-05-23T13:04:44;100327.56;;;23.66;45.22
17060;BME280;8646;49.716;9.266;2023-05-23T13:07:47;100329.81;;;23.90;44.64
17060;BME280;8646;49.716;9.266;2023-05-23T13:10:50;100329.44;;;23.75;45.01
17060;BME280;8646;49.716;9.266;2023-05-23T13:13:54;100319.63;;;23.90;44.35
17060;BME280;8646;49.716;9.266;2023-05-23T13:16:58;100318.19;;;23.86;44.13
17060;BME280;8646;49.716;9.266;2023-05-23T13:20:01;100312.75;;;23.94;44.27
17060;BME280;8646;49.716;9.266;2023-05-23T13:23:05;100318.78;;;23.80;44.61
17060;BME280;8646;49.716;9.266;2023-05-23T13:26:08;100312.13;;;23.73;44.36
17060;BME280;8646;49.716;9.266;2023-05-23T13:29:11;100323.78;;;23.57;45.03
17060;BME280;8646;49.716;9.266;2023-05-23T13:32:15;100307.75;;;23.71;44.62
17060;BME280;8646;49.716;9.266;2023-05-23T13:35:19;100312.41;;;23.70;45.17
17060;BME280;8646;49.716;9.266;2023-05-23T13:38:21;100307.13;;;23.86;44.64
17060;BME280;8646;49.716;9.266;2023-05-23T13:41:27;100312.72;;;23.67;44.89
17060;BME280;8646;49.716;9.266;2023-05-23T13:44:30;100308.50;;;23.63;44.63
17060;BME280;8646;49.716;9.266;2023-05-23T13:47:34;100316.19;;;23.69;44.85
17060;BME280;8646;49.716;9.266;2023-05-23T13:50:38;100301.31;;;24.17;43.52
17060;BME280;8646;49.716;9.266;2023-05-23T13:53:41;100303.47;;;23.95;44.14
17060;BME280;8646;49.716;9.266;2023-05-23T13:56:44;100296.63;;;24.00;44.78
17060;BME280;8646;49.716;9.266;2023-05-23T13:59:47;100290.09;;;24.18;44.14
17060;BME280;8646;49.716;9.266;2023-05-23T14:02:51;100299.91;;;24.13;44.12
17060;BME280;8646;49.716;9.266;2023-05-23T14:05:54;100314.50;;;23.49;45.43
17060;BME280;8646;49.716;9.266;2023-05-23T14:08:57;100325.69;;;22.99;46.35
17060;BME280;8646;49.716;9.266;2023-05-23T14:12:00;100328.28;;;22.32;48.04
17060;BME280;8646;49.716;9.266;2023-05-23T14:15:03;100338.38;;;22.12;49.05
17060;BME280;8646;49.716;9.266;2023-05-23T14:18:07;100339.47;;;22.00;49.58
17060;BME280;8646;49.716;9.266;2023-05-23T14:21:10;100337.75;;;21.78;49.84
17060;BME280;8646;49.716;9.266;2023-05-23T14:24:13;100341.38;;;21.79;49.98
17060;BME280;8646;49.716;9.266;2023-05-23T14:27:16;100352.63;;;21.96;49.28
17060;BME280;8646;49.716;9.266;2023-05-23T14:30:19;100336.03;;;22.07;48.41
17060;BME280;8646;49.716;9.266;2023-05-23T14:33:23;100342.31;;;21.89;48.75
17060;BME280;8646;49.716;9.266;2023-05-23T14:36:27;100338.16;;;22.34;47.77
17060;BME280;8646;49.716;9.266;2023-05-23T14:39:29;100337.59;;;22.40;47.96
17060;BME280;8646;49.716;9.266;2023-05-23T14:42:32;100348.38;;;22.43;48.07
17060;BME280;8646;49.716;9.266;2023-05-23T14:45:35;100347.19;;;22.36;48.25
17060;BME280;8646;49.716;9.266;2023-05-23T14:48:39;100342.03;;;22.22;48.96
17060;BME280;8646;49.716;9.266;2023-05-23T14:51:43;100347.66;;;22.51;48.31
17060;BME280;8646;49.716;9.266;2023-05-23T14:54:52;100356.31;;;22.37;48.78
17060;BME280;8646;49.716;9.266;2023-05-23T14:57:55;100359.59;;;22.21;48.34
17060;BME280;8646;49.716;9.266;2023-05-23T15:00:58;100369.03;;;21.98;48.73
17060;BME280;8646;49.716;9.266;2023-05-23T15:04:02;100364.69;;;21.75;49.39
17060;BME280;8646;49.716;9.266;2023-05-23T15:07:08;100357.47;;;21.83;49.43
17060;BME280;8646;49.716;9.266;2023-05-23T15:10:11;100368.28;;;21.96;49.50
17060;BME280;8646;49.716;9.266;2023-05-23T15:13:14;100369.22;;;22.06;50.10
17060;BME280;8646;49.716;9.266;2023-05-23T15:16:17;100334.44;;;21.84;49.17
17060;BME280;8646;49.716;9.266;2023-05-23T15:19:21;100361.34;;;21.71;50.39
17060;BME280;8646;49.716;9.266;2023-05-23T15:22:24;100369.38;;;21.84;49.33
17060;BME280;8646;49.716;9.266;2023-05-23T15:25:30;100374.38;;;21.69;49.40
17060;BME280;8646;49.716;9.266;2023-05-23T15:28:49;100369.25;;;21.44;50.23
17060;BME280;8646;49.716;9.266;2023-05-23T15:31:52;100369.09;;;21.24;51.04
17060;BME280;8646;49.716;9.266;2023-05-23T15:34:56;100374.50;;;21.15;51.46
17060;BME280;8646;49.716;9.266;2023-05-23T15:37:59;100373.47;;;21.27;51.37
17060;BME280;8646;49.716;9.266;2023-05-23T15:41:02;100372.72;;;21.25;51.51
17060;BME280;8646;49.716;9.266;2023-05-23T15:44:06;100374.28;;;21.07;51.98
17060;BME280;8646;49.716;9.266;2023-05-23T15:47:09;100367.06;;;20.94;52.52
17060;BME280;8646;49.716;9.266;2023-05-23T15:50:14;100380.94;;;20.93;52.32
17060;BME280;8646;49.716;9.266;2023-05-23T15:53:17;100395.97;;;20.89;52.79
17060;BME280;8646;49.716;9.266;2023-05-23T15:56:20;100385.28;;;20.64;53.74
17060;BME280;8646;49.716;9.266;2023-05-23T15:59:23;100396.56;;;20.38;54.21
17060;BME280;8646;49.716;9.266;2023-05-23T16:02:25;100396.69;;;20.37;53.96
17060;BME280;8646;49.716;9.266;2023-05-23T16:05:31;100396.41;;;20.29;54.23
17060;BME280;8646;49.716;9.266;2023-05-23T16:08:33;100397.16;;;20.08;55.11
17060;BME280;8646;49.716;9.266;2023-05-23T16:11:36;100399.28;;;20.16;54.46
17060;BME280;8646;49.716;9.266;2023-05-23T16:14:39;100406.16;;;20.10;54.21